sensor_id;sensor_type;location;lat;lon;timestamp;temperature;humidity
63966;DHT22;50151;52.030;5.350;2023-06-05T00:02:01;13.80;99.90
63966;DHT22;50151;52.030;5.350;2023-06-05T00:04:28;13.80;99.90
63966;DHT22;50151;52.030;5.350;2023-06-05T00:06:55;13.60;99.90
63966;DHT22;50151;52.030;5.350;2023-06-05T00:09:23;13.70;99.90
63966;DHT22;50151;52.030;5.350;2023-06-05T00:11:50;13.60;99.90
63966;DHT22;50151;52.030;5.350;2023-06-05T00:14:16;13.60;99.90
63966;DHT22;50151;52.030;5.350;2023-06-05T00:16:43;13.60;99.90
63966;DHT22;50151;52.030;5.350;2023-06-05T00:19:10;13.60;99.90
63966;DHT22;50151;52.030;5.350;2023-06-05T00:21:37;13.50;99.90
63966;DHT22;50151;52.030;5.350;2023-06-05T00:24:04;13.50;99.90
63966;DHT22;50151;52.030;5.350;2023-06-05T00:26:32;13.40;99.90
63966;DHT22;50151;52.030;5.350;2023-06-05T00:28:58;13.30;99.90
63966;DHT22;50151;52.030;5.350;2023-06-05T00:31:25;13.30;99.90
63966;DHT22;50151;52.030;5.350;2023-06-05T00:33:52;13.30;99.90
63966;DHT22;50151;52.030;5.350;2023-06-05T00:36:19;13.20;99.90
63966;DHT22;50151;52.030;5.350;2023-06-05T00:38:50;13.20;99.90
63966;DHT22;50151;52.030;5.350;2023-06-05T00:41:17;13.20;99.90
63966;DHT22;50151;52.030;5.350;2023-06-05T00:43:43;13.10;99.90
63966;DHT22;50151;52.030;5.350;2023-06-05T00:46:10;13.20;99.90
63966;DHT22;50151;52.030;5.350;2023-06-05T00:48:38;13.20;99.90
63966;DHT22;50151;52.030;5.350;2023-06-05T00:51:06;13.10;99.90
63966;DHT22;50151;52.030;5.350;2023-06-05T00:53:35;13.10;99.90
63966;DHT22;50151;52.030;5.350;2023-06-05T00:56:03;13.10;99.90
63966;DHT22;50151;52.030;5.350;2023-06-05T00:58:30;13.20;99.90
63966;DHT22;50151;52.030;5.350;2023-06-05T01:00:58;13.00;99.90
63966;DHT22;50151;52.030;5.350;2023-06-05T01:03:28;13.00;99.90
63966;DHT22;50151;52.030;5.350;2023-06-05T01:05:56;13.00;99.90
63966;DHT22;50151;52.030;5.350;2023-06-05T01:08:31;13.00;99.90
63966;DHT22;50151;52.030;5.350;2023-06-05T01:14:11;12.60;99.90
63966;DHT22;50151;52.030;5.350;2023-06-05T01:16:45;12.70;99.90
63966;DHT22;50151;52.030;5.350;2023-06-05T01:19:14;12.80;99.90
63966;DHT22;50151;52.030;5.350;2023-06-05T01:21:41;12.80;99.90
63966;DHT22;50151;52.030;5.350;2023-06-05T01:24:08;12.70;99.90
63966;DHT22;50151;52.030;5.350;2023-06-05T01:26:45;12.60;99.90
63966;DHT22;50151;52.030;5.350;2023-06-05T01:29:24;12.60;99.90
63966;DHT22;50151;52.030;5.350;2023-06-05T01:31:56;12.60;99.90
63966;DHT22;50151;52.030;5.350;2023-06-05T01:34:25;12.60;99.90
63966;DHT22;50151;52.030;5.350;2023-06-05T01:36:55;12.60;99.90
63966;DHT22;50151;52.030;5.350;2023-06-05T01:39:24;12.50;99.90
63966;DHT22;50151;52.030;5.350;2023-06-05T01:41:52;12.40;99.90
63966;DHT22;50151;52.030;5.350;2023-06-05T01:44:20;12.40;99.90
63966;DHT22;50151;52.030;5.350;2023-06-05T01:46:47;12.30;99.90
63966;DHT22;50151;52.030;5.350;2023-06-05T01:49:14;12.30;99.90
63966;DHT22;50151;52.030;5.350;2023-06-05T01:51:41;12.30;99.90
63966;DHT22;50151;52.030;5.350;2023-06-05T01:54:08;12.20;99.90
63966;DHT22;50151;52.030;5.350;2023-06-05T01:56:35;12.20;99.90
63966;DHT22;50151;52.030;5.350;2023-06-05T01:59:04;12.20;99.90
63966;DHT22;50151;52.030;5.350;2023-06-05T02:01:34;12.20;99.90
63966;DHT22;50151;52.030;5.350;2023-06-05T02:04:02;12.20;99.90
63966;DHT22;50151;52.030;5.350;2023-06-05T02:06:33;12.20;99.90
63966;DHT22;50151;52.030;5.350;2023-06-05T02:09:09;12.10;99.90
63966;DHT22;50151;52.030;5.350;2023-06-05T02:11:37;12.00;99.90
63966;DHT22;50151;52.030;5.350;2023-06-05T02:14:05;12.00;99.90
63966;DHT22;50151;52.030;5.350;2023-06-05T02:16:42;12.00;99.90
63966;DHT22;50151;52.030;5.350;2023-06-05T02:19:10;12.00;99.90
63966;DHT22;50151;52.030;5.350;2023-06-05T02:21:37;12.00;99.90
63966;DHT22;50151;52.030;5.350;2023-06-05T02:24:04;12.10;99.90
63966;DHT22;50151;52.030;5.350;2023-06-05T02:26:31;12.00;99.90
63966;DHT22;50151;52.030;5.350;2023-06-05T02:28:59;12.00;99.90
63966;DHT22;50151;52.030;5.350;2023-06-05T02:31:26;12.00;99.90
63966;DHT22;50151;52.030;5.350;2023-06-05T02:33:56;11.90;99.90
63966;DHT22;50151;52.030;5.350;2023-06-05T02:36:23;11.80;99.90
63966;DHT22;50151;52.030;5.350;2023-06-05T02:38:51;11.80;99.90
63966;DHT22;50151;52.030;5.350;2023-06-05T02:41:21;11.80;99.90
63966;DHT22;50151;52.030;5.350;2023-06-05T02:43:48;11.80;99.90
63966;DHT22;50151;52.030;5.350;2023-06-05T02:46:15;11.70;99.90
63966;DHT22;50151;52.030;5.350;2023-06-05T02:48:42;11.70;99.90
63966;DHT22;50151;52.030;5.350;2023-06-05T02:51:09;11.70;99.90
63966;DHT22;50151;52.030;5.350;2023-06-05T02:53:37;11.70;99.90
63966;DHT22;50151;52.030;5.350;2023-06-05T02:56:04;11.70;99.90
63966;DHT22;50151;52.030;5.350;2023-06-05T02:58:31;11.70;99.90
63966;DHT22;50151;52.030;5.350;2023-06-05T03:01:00;11.70;99.90
63966;DHT22;50151;52.030;5.350;2023-06-05T03:03:32;11.60;99.90
63966;DHT22;50151;52.030;5.350;2023-06-05T03:06:01;11.60;99.90
63966;DHT22;50151;52.030;5.350;2023-06-05T03:08:31;11.70;99.90
63966;DHT22;50151;52.030;5.350;2023-06-05T03:11:00;11.60;99.90
63966;DHT22;50151;52.030;5.350;2023-06-05T03:13:27;11.50;99.90
63966;DHT22;50151;52.030;5.350;2023-06-05T03:15:55;11.40;99.90
63966;DHT22;50151;52.030;5.350;2023-06-05T03:18:28;11.40;99.90
63966;DHT22;50151;52.030;5.350;2023-06-05T03:20:55;11.40;99.90
63966;DHT22;50151;52.030;5.350;2023-06-05T03:23:26;11.40;99.90
63966;DHT22;50151;52.030;5.350;2023-06-05T03:25:56;11.40;99.90
63966;DHT22;50151;52.030;5.350;2023-06-05T03:28:23;11.40;99.90
63966;DHT22;50151;52.030;5.350;2023-06-05T03:30:50;11.40;99.90
63966;DHT22;50151;52.030;5.350;2023-06-05T03:33:17;11.30;99.90
63966;DHT22;50151;52.030;5.350;2023-06-05T03:35:44;11.30;99.90
63966;DHT22;50151;52.030;5.350;2023-06-05T03:38:13;11.30;99.90
63966;DHT22;50151;52.030;5.350;2023-06-05T03:40:41;11.30;99.90
63966;DHT22;50151;52.030;5.350;2023-06-05T03:43:08;11.30;99.90
63966;DHT22;50151;52.030;5.350;2023-06-05T03:45:36;11.30;99.90
63966;DHT22;50151;52.030;5.350;2023-06-05T03:48:03;11.30;99.90
63966;DHT22;50151;52.030;5.350;2023-06-05T03:50:30;11.20;99.90
63966;DHT22;50151;52.030;5.350;2023-06-05T03:52:58;11.20;99.90
63966;DHT22;50151;52.030;5.350;2023-06-05T03:55:32;11.20;99.90
63966;DHT22;50151;52.030;5.350;2023-06-05T03:58:12;11.20;99.90
63966;DHT22;50151;52.030;5.350;2023-06-05T04:00:41;11.10;99.90
63966;DHT22;50151;52.030;5.350;2023-06-05T04:03:10;11.10;99.90
63966;DHT22;50151;52.030;5.350;2023-06-05T04:05:38;11.10;99.90
63966;DHT22;50151;52.030;5.350;2023-06-05T04:08:06;11.10;99.90
63966;DHT22;50151;52.030;5.350;2023-06-05T04:10:33;11.10;99.90
63966;DHT22;50151;52.030;5.350;2023-06-05T04:13:00;11.20;99.90
63966;DHT22;50151;52.030;5.350;2023-06-05T04:15:27;11.10;99.90
63966;DHT22;50151;52.030;5.350;2023-06-05T04:17:54;11.10;99.90
63966;DHT22;50151;52.030;5.350;2023-06-05T04:20:22;11.10;99.90
63966;DHT22;50151;52.030;5.350;2023-06-05T04:22:49;11.20;99.90
63966;DHT22;50151;52.030;5.350;2023-06-05T04:25:16;11.10;99.90
63966;DHT22;50151;52.030;5.350;2023-06-05T04:27:45;10.90;99.90
63966;DHT22;50151;52.030;5.350;2023-06-05T04:30:13;11.10;99.90
63966;DHT22;50151;52.030;5.350;2023-06-05T04:32:40;11.10;99.90
63966;DHT22;50151;52.030;5.350;2023-06-05T04:35:09;11.10;99.90
63966;DHT22;50151;52.030;5.350;2023-06-05T04:37:36;11.10;99.90
63966;DHT22;50151;52.030;5.350;2023-06-05T04:40:05;11.10;99.90
63966;DHT22;50151;52.030;5.350;2023-06-05T04:42:33;11.10;99.90
63966;DHT22;50151;52.030;5.350;2023-06-05T04:45:04;11.20;99.90
63966;DHT22;50151;52.030;5.350;2023-06-05T04:47:31;11.10;99.90
63966;DHT22;50151;52.030;5.350;2023-06-05T04:49:59;11.20;99.90
63966;DHT22;50151;52.030;5.350;2023-06-05T04:52:26;11.20;99.90
63966;DHT22;50151;52.030;5.350;2023-06-05T04:54:53;11.30;99.90
63966;DHT22;50151;52.030;5.350;2023-06-05T04:57:20;11.20;99.90
63966;DHT22;50151;52.030;5.350;2023-06-05T04:59:46;11.30;99.90
63966;DHT22;50151;52.030;5.350;2023-06-05T05:02:13;11.30;99.90
63966;DHT22;50151;52.030;5.350;2023-06-05T05:04:40;11.40;99.90
63966;DHT22;50151;52.030;5.350;2023-06-05T05:07:07;11.40;99.90
63966;DHT22;50151;52.030;5.350;2023-06-05T05:09:39;11.30;99.90
63966;DHT22;50151;52.030;5.350;2023-06-05T05:12:06;11.50;99.90
63966;DHT22;50151;52.030;5.350;2023-06-05T05:14:33;11.60;99.90
63966;DHT22;50151;52.030;5.350;2023-06-05T05:17:00;11.60;99.90
63966;DHT22;50151;52.030;5.350;2023-06-05T05:19:28;11.70;99.90
63966;DHT22;50151;52.030;5.350;2023-06-05T05:21:55;11.70;99.90
63966;DHT22;50151;52.030;5.350;2023-06-05T05:24:22;11.70;99.90
63966;DHT22;50151;52.030;5.350;2023-06-05T05:26:51;11.70;99.90
63966;DHT22;50151;52.030;5.350;2023-06-05T05:29:18;11.70;99.90
63966;DHT22;50151;52.030;5.350;2023-06-05T05:31:45;11.80;99.90
63966;DHT22;50151;52.030;5.350;2023-06-05T05:34:12;11.90;99.90
63966;DHT22;50151;52.030;5.350;2023-06-05T05:36:39;11.90;99.90
63966;DHT22;50151;52.030;5.350;2023-06-05T05:39:05;12.00;99.90
63966;DHT22;50151;52.030;5.350;2023-06-05T05:41:34;12.10;99.90
63966;DHT22;50151;52.030;5.350;2023-06-05T05:44:01;12.00;99.90
63966;DHT22;50151;52.030;5.350;2023-06-05T05:46:28;12.10;99.90
63966;DHT22;50151;52.030;5.350;2023-06-05T05:48:55;12.10;99.90
63966;DHT22;50151;52.030;5.350;2023-06-05T05:51:23;12.20;99.90
63966;DHT22;50151;52.030;5.350;2023-06-05T05:53:50;12.30;99.90
63966;DHT22;50151;52.030;5.350;2023-06-05T05:56:17;12.30;99.90
63966;DHT22;50151;52.030;5.350;2023-06-05T05:58:44;12.40;99.90
63966;DHT22;50151;52.030;5.350;2023-06-05T06:01:11;12.50;99.90
63966;DHT22;50151;52.030;5.350;2023-06-05T06:03:39;12.50;99.90
63966;DHT22;50151;52.030;5.350;2023-06-05T06:06:06;12.60;99.90
63966;DHT22;50151;52.030;5.350;2023-06-05T06:08:34;12.50;99.90
63966;DHT22;50151;52.030;5.350;2023-06-05T06:11:01;12.70;99.90
63966;DHT22;50151;52.030;5.350;2023-06-05T06:13:33;12.80;99.90
63966;DHT22;50151;52.030;5.350;2023-06-05T06:16:02;12.80;99.90
63966;DHT22;50151;52.030;5.350;2023-06-05T06:18:29;13.00;99.90
63966;DHT22;50151;52.030;5.350;2023-06-05T06:20:57;13.10;99.90
63966;DHT22;50151;52.030;5.350;2023-06-05T06:23:24;13.00;99.90
63966;DHT22;50151;52.030;5.350;2023-06-05T06:25:51;13.00;99.90
63966;DHT22;50151;52.030;5.350;2023-06-05T06:28:18;13.00;99.90
63966;DHT22;50151;52.030;5.350;2023-06-05T06:30:46;13.00;99.90
63966;DHT22;50151;52.030;5.350;2023-06-05T06:33:13;13.10;99.90
63966;DHT22;50151;52.030;5.350;2023-06-05T06:35:40;13.20;99.90
63966;DHT22;50151;52.030;5.350;2023-06-05T06:38:07;13.20;99.90
63966;DHT22;50151;52.030;5.350;2023-06-05T06:40:33;13.20;99.90
63966;DHT22;50151;52.030;5.350;2023-06-05T06:43:00;13.30;99.90
63966;DHT22;50151;52.030;5.350;2023-06-05T06:45:27;13.30;99.90
63966;DHT22;50151;52.030;5.350;2023-06-05T06:47:54;13.20;99.90
63966;DHT22;50151;52.030;5.350;2023-06-05T06:50:34;13.30;99.90
63966;DHT22;50151;52.030;5.350;2023-06-05T06:53:01;13.50;99.90
63966;DHT22;50151;52.030;5.350;2023-06-05T06:55:28;13.70;99.90
63966;DHT22;50151;52.030;5.350;2023-06-05T06:57:54;13.90;99.90
63966;DHT22;50151;52.030;5.350;2023-06-05T07:00:22;13.80;99.90
63966;DHT22;50151;52.030;5.350;2023-06-05T07:02:50;13.90;99.90
63966;DHT22;50151;52.030;5.350;2023-06-05T07:05:17;13.90;99.90
63966;DHT22;50151;52.030;5.350;2023-06-05T07:07:46;13.90;99.90
63966;DHT22;50151;52.030;5.350;2023-06-05T07:10:13;13.90;99.90
63966;DHT22;50151;52.030;5.350;2023-06-05T07:12:40;14.00;99.90
63966;DHT22;50151;52.030;5.350;2023-06-05T07:15:07;14.10;99.90
63966;DHT22;50151;52.030;5.350;2023-06-05T07:17:33;14.20;99.90
63966;DHT22;50151;52.030;5.350;2023-06-05T07:20:00;14.30;99.90
63966;DHT22;50151;52.030;5.350;2023-06-05T07:22:27;14.40;99.90
63966;DHT22;50151;52.030;5.350;2023-06-05T07:24:55;14.50;99.90
63966;DHT22;50151;52.030;5.350;2023-06-05T07:27:23;14.60;99.90
63966;DHT22;50151;52.030;5.350;2023-06-05T07:29:50;14.80;99.90
63966;DHT22;50151;52.030;5.350;2023-06-05T07:32:19;14.70;99.90
63966;DHT22;50151;52.030;5.350;2023-06-05T07:34:47;14.70;99.90
63966;DHT22;50151;52.030;5.350;2023-06-05T07:37:14;14.70;99.90
63966;DHT22;50151;52.030;5.350;2023-06-05T07:39:42;14.70;99.90
63966;DHT22;50151;52.030;5.350;2023-06-05T07:42:08;14.70;99.90
63966;DHT22;50151;52.030;5.350;2023-06-05T07:44:35;15.00;99.90
63966;DHT22;50151;52.030;5.350;2023-06-05T07:47:02;14.90;99.90
63966;DHT22;50151;52.030;5.350;2023-06-05T07:49:30;15.00;99.90
63966;DHT22;50151;52.030;5.350;2023-06-05T07:51:58;15.00;99.90
63966;DHT22;50151;52.030;5.350;2023-06-05T07:54:25;15.10;99.90
63966;DHT22;50151;52.030;5.350;2023-06-05T07:56:52;15.30;99.90
63966;DHT22;50151;52.030;5.350;2023-06-05T07:59:19;15.40;99.90
63966;DHT22;50151;52.030;5.350;2023-06-05T08:01:51;15.50;99.90
63966;DHT22;50151;52.030;5.350;2023-06-05T08:04:18;15.30;99.90
63966;DHT22;50151;52.030;5.350;2023-06-05T08:06:46;15.50;99.90
63966;DHT22;50151;52.030;5.350;2023-06-05T08:09:13;15.70;99.90
63966;DHT22;50151;52.030;5.350;2023-06-05T08:11:40;15.60;99.90
63966;DHT22;50151;52.030;5.350;2023-06-05T08:14:08;15.80;99.90
63966;DHT22;50151;52.030;5.350;2023-06-05T08:16:35;16.00;99.90
63966;DHT22;50151;52.030;5.350;2023-06-05T08:19:03;15.80;99.90
63966;DHT22;50151;52.030;5.350;2023-06-05T08:21:30;15.60;99.90
63966;DHT22;50151;52.030;5.350;2023-06-05T08:23:57;15.80;99.90
63966;DHT22;50151;52.030;5.350;2023-06-05T08:26:24;15.90;99.90
63966;DHT22;50151;52.030;5.350;2023-06-05T08:28:52;16.10;99.90
63966;DHT22;50151;52.030;5.350;2023-06-05T08:31:19;16.30;99.90
63966;DHT22;50151;52.030;5.350;2023-06-05T08:33:47;16.40;99.90
63966;DHT22;50151;52.030;5.350;2023-06-05T08:36:13;16.40;99.90
63966;DHT22;50151;52.030;5.350;2023-06-05T08:38:40;16.50;99.90
63966;DHT22;50151;52.030;5.350;2023-06-05T08:41:08;16.60;99.90
63966;DHT22;50151;52.030;5.350;2023-06-05T08:43:41;16.60;99.90
63966;DHT22;50151;52.030;5.350;2023-06-05T08:46:10;16.70;99.90
63966;DHT22;50151;52.030;5.350;2023-06-05T08:48:45;16.70;99.90
63966;DHT22;50151;52.030;5.350;2023-06-05T08:51:13;16.60;99.90
63966;DHT22;50151;52.030;5.350;2023-06-05T08:53:43;16.70;99.90
63966;DHT22;50151;52.030;5.350;2023-06-05T08:56:12;16.80;99.90
63966;DHT22;50151;52.030;5.350;2023-06-05T08:58:41;16.90;99.90
63966;DHT22;50151;52.030;5.350;2023-06-05T09:01:10;16.90;99.90
63966;DHT22;50151;52.030;5.350;2023-06-05T09:03:37;17.00;99.90
63966;DHT22;50151;52.030;5.350;2023-06-05T09:06:04;17.30;99.90
63966;DHT22;50151;52.030;5.350;2023-06-05T09:08:32;17.30;99.90
63966;DHT22;50151;52.030;5.350;2023-06-05T09:13:48;17.40;99.90
63966;DHT22;50151;52.030;5.350;2023-06-05T09:16:19;17.60;99.90
63966;DHT22;50151;52.030;5.350;2023-06-05T09:18:55;17.40;99.90
63966;DHT22;50151;52.030;5.350;2023-06-05T09:21:23;17.60;99.90
63966;DHT22;50151;52.030;5.350;2023-06-05T09:27:09;17.80;99.90
63966;DHT22;50151;52.030;5.350;2023-06-05T09:29:41;17.90;99.90
63966;DHT22;50151;52.030;5.350;2023-06-05T09:32:17;18.00;99.90
63966;DHT22;50151;52.030;5.350;2023-06-05T09:34:55;18.10;99.90
63966;DHT22;50151;52.030;5.350;2023-06-05T09:37:33;18.20;99.90
63966;DHT22;50151;52.030;5.350;2023-06-05T09:40:02;18.30;99.90
63966;DHT22;50151;52.030;5.350;2023-06-05T09:42:32;18.30;99.90
63966;DHT22;50151;52.030;5.350;2023-06-05T09:45:02;18.60;99.90
63966;DHT22;50151;52.030;5.350;2023-06-05T09:47:31;18.70;99.90
63966;DHT22;50151;52.030;5.350;2023-06-05T09:50:21;18.50;99.90
63966;DHT22;50151;52.030;5.350;2023-06-05T09:52:51;18.80;99.90
63966;DHT22;50151;52.030;5.350;2023-06-05T09:55:19;18.60;99.90
63966;DHT22;50151;52.030;5.350;2023-06-05T09:57:46;18.70;99.90
63966;DHT22;50151;52.030;5.350;2023-06-05T10:00:15;18.90;99.90
63966;DHT22;50151;52.030;5.350;2023-06-05T10:02:45;18.90;99.90
63966;DHT22;50151;52.030;5.350;2023-06-05T10:05:12;18.90;99.90
63966;DHT22;50151;52.030;5.350;2023-06-05T10:07:41;19.30;99.90
63966;DHT22;50151;52.030;5.350;2023-06-05T10:10:11;19.50;99.90
63966;DHT22;50151;52.030;5.350;2023-06-05T10:12:38;19.30;99.90
63966;DHT22;50151;52.030;5.350;2023-06-05T10:15:06;19.60;99.90
63966;DHT22;50151;52.030;5.350;2023-06-05T10:17:34;19.80;99.90
63966;DHT22;50151;52.030;5.350;2023-06-05T10:20:05;19.90;99.90
63966;DHT22;50151;52.030;5.350;2023-06-05T10:22:34;20.10;99.90
63966;DHT22;50151;52.030;5.350;2023-06-05T10:25:05;20.00;99.90
63966;DHT22;50151;52.030;5.350;2023-06-05T10:27:43;20.30;99.90
63966;DHT22;50151;52.030;5.350;2023-06-05T10:30:19;20.10;99.90
63966;DHT22;50151;52.030;5.350;2023-06-05T10:35:53;20.30;99.90
63966;DHT22;50151;52.030;5.350;2023-06-05T10:38:24;20.50;99.90
63966;DHT22;50151;52.030;5.350;2023-06-05T10:40:59;20.70;99.90
63966;DHT22;50151;52.030;5.350;2023-06-05T10:43:44;21.00;99.90
63966;DHT22;50151;52.030;5.350;2023-06-05T10:49:16;21.30;99.90
63966;DHT22;50151;52.030;5.350;2023-06-05T10:51:49;21.30;99.90
63966;DHT22;50151;52.030;5.350;2023-06-05T10:59:20;21.20;99.90
63966;DHT22;50151;52.030;5.350;2023-06-05T11:07:27;21.60;99.90
63966;DHT22;50151;52.030;5.350;2023-06-05T11:10:05;21.50;99.90
63966;DHT22;50151;52.030;5.350;2023-06-05T11:15:10;22.20;99.90
63966;DHT22;50151;52.030;5.350;2023-06-05T11:17:39;22.10;99.90
63966;DHT22;50151;52.030;5.350;2023-06-05T11:20:08;22.30;99.90
63966;DHT22;50151;52.030;5.350;2023-06-05T11:28:02;22.40;99.90
63966;DHT22;50151;52.030;5.350;2023-06-05T11:30:33;22.60;99.90
63966;DHT22;50151;52.030;5.350;2023-06-05T11:33:19;22.60;99.90
63966;DHT22;50151;52.030;5.350;2023-06-05T11:35:49;22.90;99.90
63966;DHT22;50151;52.030;5.350;2023-06-05T11:38:22;22.80;99.90
63966;DHT22;50151;52.030;5.350;2023-06-05T11:40:51;23.10;99.90
63966;DHT22;50151;52.030;5.350;2023-06-05T11:43:19;23.20;99.90
63966;DHT22;50151;52.030;5.350;2023-06-05T11:45:54;23.10;99.90
63966;DHT22;50151;52.030;5.350;2023-06-05T11:48:23;23.10;99.90
63966;DHT22;50151;52.030;5.350;2023-06-05T11:50:59;23.30;99.90
63966;DHT22;50151;52.030;5.350;2023-06-05T11:53:28;23.60;99.90
63966;DHT22;50151;52.030;5.350;2023-06-05T11:55:56;23.30;99.90
63966;DHT22;50151;52.030;5.350;2023-06-05T11:58:34;23.50;99.90
63966;DHT22;50151;52.030;5.350;2023-06-05T12:01:17;23.90;99.90
63966;DHT22;50151;52.030;5.350;2023-06-05T12:06:29;24.00;99.90
63966;DHT22;50151;52.030;5.350;2023-06-05T12:09:10;24.00;99.90
63966;DHT22;50151;52.030;5.350;2023-06-05T12:11:38;23.90;99.90
63966;DHT22;50151;52.030;5.350;2023-06-05T12:14:05;23.80;99.90
63966;DHT22;50151;52.030;5.350;2023-06-05T12:16:34;23.90;99.90
63966;DHT22;50151;52.030;5.350;2023-06-05T12:19:18;24.50;99.90
63966;DHT22;50151;52.030;5.350;2023-06-05T12:21:47;24.40;99.90
63966;DHT22;50151;52.030;5.350;2023-06-05T12:24:15;24.20;99.90
63966;DHT22;50151;52.030;5.350;2023-06-05T12:26:55;24.40;99.90
63966;DHT22;50151;52.030;5.350;2023-06-05T12:29:25;24.50;99.90
63966;DHT22;50151;52.030;5.350;2023-06-05T12:31:59;24.40;99.90
63966;DHT22;50151;52.030;5.350;2023-06-05T12:34:46;24.90;99.90
63966;DHT22;50151;52.030;5.350;2023-06-05T12:37:27;24.70;99.90
63966;DHT22;50151;52.030;5.350;2023-06-05T12:40:05;25.00;99.90
63966;DHT22;50151;52.030;5.350;2023-06-05T12:42:37;25.00;99.90
63966;DHT22;50151;52.030;5.350;2023-06-05T12:45:05;24.80;99.90
63966;DHT22;50151;52.030;5.350;2023-06-05T12:47:33;25.00;99.90
63966;DHT22;50151;52.030;5.350;2023-06-05T12:50:01;24.60;99.90
63966;DHT22;50151;52.030;5.350;2023-06-05T12:52:31;25.10;99.90
63966;DHT22;50151;52.030;5.350;2023-06-05T12:54:58;25.70;99.90
63966;DHT22;50151;52.030;5.350;2023-06-05T12:57:25;25.40;99.90
63966;DHT22;50151;52.030;5.350;2023-06-05T12:59:54;25.10;99.90
63966;DHT22;50151;52.030;5.350;2023-06-05T13:02:22;25.50;99.90
63966;DHT22;50151;52.030;5.350;2023-06-05T13:04:49;25.50;99.90
63966;DHT22;50151;52.030;5.350;2023-06-05T13:07:16;25.40;99.90
63966;DHT22;50151;52.030;5.350;2023-06-05T13:09:43;25.50;99.90
63966;DHT22;50151;52.030;5.350;2023-06-05T13:12:10;25.80;99.90
63966;DHT22;50151;52.030;5.350;2023-06-05T13:14:37;26.10;99.90
63966;DHT22;50151;52.030;5.350;2023-06-05T13:17:08;26.60;99.90
63966;DHT22;50151;52.030;5.350;2023-06-05T13:19:35;26.60;99.90
63966;DHT22;50151;52.030;5.350;2023-06-05T13:22:01;26.40;99.90
63966;DHT22;50151;52.030;5.350;2023-06-05T13:24:28;26.40;99.90
63966;DHT22;50151;52.030;5.350;2023-06-05T13:26:55;27.00;99.90
63966;DHT22;50151;52.030;5.350;2023-06-05T13:29:22;26.50;99.90
63966;DHT22;50151;52.030;5.350;2023-06-05T13:31:48;26.90;99.90
63966;DHT22;50151;52.030;5.350;2023-06-05T13:34:15;26.60;99.90
63966;DHT22;50151;52.030;5.350;2023-06-05T13:36:43;27.00;99.90
63966;DHT22;50151;52.030;5.350;2023-06-05T13:39:11;26.90;99.90
63966;DHT22;50151;52.030;5.350;2023-06-05T13:41:38;26.80;99.90
63966;DHT22;50151;52.030;5.350;2023-06-05T13:44:04;27.20;99.90
63966;DHT22;50151;52.030;5.350;2023-06-05T13:46:31;27.50;99.90
63966;DHT22;50151;52.030;5.350;2023-06-05T13:48:58;26.80;99.90
63966;DHT22;50151;52.030;5.350;2023-06-05T13:51:27;26.60;99.90
63966;DHT22;50151;52.030;5.350;2023-06-05T13:53:53;27.10;99.90
63966;DHT22;50151;52.030;5.350;2023-06-05T13:56:23;27.50;99.90
63966;DHT22;50151;52.030;5.350;2023-06-05T13:58:50;27.40;99.90
63966;DHT22;50151;52.030;5.350;2023-06-05T14:01:17;27.80;99.90
63966;DHT22;50151;52.030;5.350;2023-06-05T14:03:44;27.60;99.90
63966;DHT22;50151;52.030;5.350;2023-06-05T14:06:13;27.70;99.90
63966;DHT22;50151;52.030;5.350;2023-06-05T14:08:39;27.90;99.90
63966;DHT22;50151;52.030;5.350;2023-06-05T14:11:06;28.10;99.90
63966;DHT22;50151;52.030;5.350;2023-06-05T14:13:33;28.10;99.90
63966;DHT22;50151;52.030;5.350;2023-06-05T14:15:59;27.40;99.90
63966;DHT22;50151;52.030;5.350;2023-06-05T14:18:26;27.50;99.90
63966;DHT22;50151;52.030;5.350;2023-06-05T14:20:53;28.00;99.90
63966;DHT22;50151;52.030;5.350;2023-06-05T14:23:20;27.60;99.90
63966;DHT22;50151;52.030;5.350;2023-06-05T14:25:50;27.30;99.90
63966;DHT22;50151;52.030;5.350;2023-06-05T14:28:17;27.30;99.90
63966;DHT22;50151;52.030;5.350;2023-06-05T14:30:46;27.40;99.90
63966;DHT22;50151;52.030;5.350;2023-06-05T14:33:13;27.10;99.90
63966;DHT22;50151;52.030;5.350;2023-06-05T14:35:40;27.10;99.90
63966;DHT22;50151;52.030;5.350;2023-06-05T14:38:06;26.40;99.90
63966;DHT22;50151;52.030;5.350;2023-06-05T14:40:33;26.60;99.90
63966;DHT22;50151;52.030;5.350;2023-06-05T14:43:00;26.50;99.90
63966;DHT22;50151;52.030;5.350;2023-06-05T14:45:27;26.60;99.90
63966;DHT22;50151;52.030;5.350;2023-06-05T14:47:54;26.30;99.90
63966;DHT22;50151;52.030;5.350;2023-06-05T14:50:21;26.50;99.90
63966;DHT22;50151;52.030;5.350;2023-06-05T14:52:48;26.10;99.90
63966;DHT22;50151;52.030;5.350;2023-06-05T14:55:14;26.10;99.90
63966;DHT22;50151;52.030;5.350;2023-06-05T14:57:41;25.80;99.90
63966;DHT22;50151;52.030;5.350;2023-06-05T15:00:08;25.60;99.90
63966;DHT22;50151;52.030;5.350;2023-06-05T15:02:35;25.80;99.90
63966;DHT22;50151;52.030;5.350;2023-06-05T15:05:02;26.10;99.90
63966;DHT22;50151;52.030;5.350;2023-06-05T15:07:38;26.00;99.90
63966;DHT22;50151;52.030;5.350;2023-06-05T15:10:06;25.60;99.90
63966;DHT22;50151;52.030;5.350;2023-06-05T15:12:35;25.50;99.90
63966;DHT22;50151;52.030;5.350;2023-06-05T15:15:02;25.50;99.90
63966;DHT22;50151;52.030;5.350;2023-06-05T15:17:46;25.30;99.90
63966;DHT22;50151;52.030;5.350;2023-06-05T15:20:14;25.20;99.90
63966;DHT22;50151;52.030;5.350;2023-06-05T15:22:41;25.10;99.90
63966;DHT22;50151;52.030;5.350;2023-06-05T15:25:08;24.80;99.90
63966;DHT22;50151;52.030;5.350;2023-06-05T15:27:34;25.00;99.90
63966;DHT22;50151;52.030;5.350;2023-06-05T15:30:02;24.80;99.90
63966;DHT22;50151;52.030;5.350;2023-06-05T15:32:29;24.60;99.90
63966;DHT22;50151;52.030;5.350;2023-06-05T15:34:57;24.30;99.90
63966;DHT22;50151;52.030;5.350;2023-06-05T15:37:24;24.60;99.90
63966;DHT22;50151;52.030;5.350;2023-06-05T15:39:51;24.90;99.90
63966;DHT22;50151;52.030;5.350;2023-06-05T15:42:27;24.60;99.90
63966;DHT22;50151;52.030;5.350;2023-06-05T15:45:11;24.60;99.90
63966;DHT22;50151;52.030;5.350;2023-06-05T15:47:39;24.50;99.90
63966;DHT22;50151;52.030;5.350;2023-06-05T15:50:07;24.20;99.90
63966;DHT22;50151;52.030;5.350;2023-06-05T15:52:35;23.90;99.90
63966;DHT22;50151;52.030;5.350;2023-06-05T15:55:03;23.80;99.90
63966;DHT22;50151;52.030;5.350;2023-06-05T15:57:30;23.90;99.90
63966;DHT22;50151;52.030;5.350;2023-06-05T15:59:57;24.30;99.90
63966;DHT22;50151;52.030;5.350;2023-06-05T16:02:23;24.20;99.90
63966;DHT22;50151;52.030;5.350;2023-06-05T16:04:51;24.00;99.90
63966;DHT22;50151;52.030;5.350;2023-06-05T16:07:18;24.10;99.90
63966;DHT22;50151;52.030;5.350;2023-06-05T16:09:45;23.80;99.90
63966;DHT22;50151;52.030;5.350;2023-06-05T16:12:12;23.90;99.90
63966;DHT22;50151;52.030;5.350;2023-06-05T16:14:39;24.00;99.90
63966;DHT22;50151;52.030;5.350;2023-06-05T16:17:06;24.20;99.90